createdAt,value
2023-06-28T00:00:29.917Z,33.33
2023-06-28T00:01:29.932Z,33.30
2023-06-28T00:02:29.909Z,33.31
2023-06-28T00:03:29.943Z,33.33
2023-06-28T00:04:29.932Z,33.30
2023-06-28T00:05:29.992Z,33.33
2023-06-28T00:06:30.015Z,33.31
2023-06-28T00:07:30.088Z,33.35
2023-06-28T00:08:30.081Z,33.34
2023-06-28T00:09:30.130Z,33.29
2023-06-28T00:10:30.168Z,33.28
2023-06-28T00:11:30.193Z,33.34
2023-06-28T00:12:30.231Z,33.33
2023-06-28T00:13:30.259Z,33.33
2023-06-28T00:14:30.307Z,33.31
2023-06-28T00:15:30.325Z,33.29
2023-06-28T00:16:30.304Z,33.33
2023-06-28T00:17:30.309Z,33.28
2023-06-28T00:18:30.256Z,33.31
2023-06-28T00:19:30.266Z,33.31
2023-06-28T00:20:30.254Z,33.32
2023-06-28T00:21:30.245Z,33.34
2023-06-28T00:22:30.251Z,33.32
2023-06-28T00:23:30.256Z,33.33
2023-06-28T00:24:30.256Z,33.28
2023-06-28T00:25:30.243Z,33.33
2023-06-28T00:26:30.237Z,33.30
2023-06-28T00:27:30.224Z,33.33
2023-06-28T00:28:30.232Z,33.31
2023-06-28T00:29:30.214Z,33.29
2023-06-28T00:30:30.210Z,33.29
2023-06-28T00:31:30.226Z,33.32
2023-06-28T00:32:30.222Z,33.29
2023-06-28T00:33:30.234Z,33.28
2023-06-28T00:34:30.288Z,33.32
2023-06-28T00:35:30.274Z,33.34
2023-06-28T00:36:30.276Z,33.28
2023-06-28T00:37:30.263Z,33.29
2023-06-28T00:38:30.245Z,33.34
2023-06-28T00:39:30.235Z,33.28
2023-06-28T00:40:30.228Z,33.29
2023-06-28T00:41:30.237Z,33.29
2023-06-28T00:42:30.218Z,33.33
2023-06-28T00:43:30.216Z,33.27
2023-06-28T00:44:30.206Z,33.31
2023-06-28T00:45:30.209Z,33.29
2023-06-28T00:46:30.210Z,33.33
2023-06-28T00:47:30.228Z,33.33
2023-06-28T00:48:30.204Z,33.33
2023-06-28T00:49:30.232Z,33.33
2023-06-28T00:50:30.265Z,33.29
2023-06-28T00:51:30.301Z,33.28
2023-06-28T00:52:30.348Z,33.28
2023-06-28T00:53:30.384Z,33.31
2023-06-28T00:54:30.424Z,33.32
2023-06-28T00:55:30.454Z,33.29
2023-06-28T00:56:30.484Z,33.33
2023-06-28T00:57:30.542Z,33.32
2023-06-28T00:58:30.554Z,33.33
2023-06-28T00:59:30.561Z,33.28
2023-06-28T01:00:30.573Z,33.35
2023-06-28T01:01:30.545Z,33.35
2023-06-28T01:02:30.634Z,33.32
2023-06-28T01:03:30.661Z,33.32
2023-06-28T01:04:30.561Z,33.35
2023-06-28T01:05:30.570Z,33.28
2023-06-28T01:06:30.533Z,33.30
2023-06-28T01:07:30.568Z,33.30
2023-06-28T01:08:30.540Z,33.29
2023-06-28T01:09:30.534Z,33.35
2023-06-28T01:10:30.531Z,33.30
2023-06-28T01:11:30.526Z,33.35
2023-06-28T01:12:30.528Z,33.32
2023-06-28T01:13:30.537Z,33.32
2023-06-28T01:14:30.561Z,33.32
2023-06-28T01:15:30.589Z,33.33
2023-06-28T01:16:30.614Z,33.30
2023-06-28T01:17:30.689Z,33.32
2023-06-28T01:18:30.651Z,33.31
2023-06-28T01:19:30.649Z,33.33
2023-06-28T01:20:30.657Z,33.32
2023-06-28T01:21:30.661Z,33.32
2023-06-28T01:22:30.647Z,33.34
2023-06-28T01:23:30.642Z,33.30
2023-06-28T01:24:30.649Z,33.32
2023-06-28T01:25:30.654Z,33.36
2023-06-28T01:26:30.629Z,33.32
2023-06-28T01:27:30.612Z,33.30
2023-06-28T01:28:30.607Z,33.33
2023-06-28T01:29:30.604Z,33.30
2023-06-28T01:30:30.611Z,33.29
2023-06-28T01:31:30.604Z,33.33
2023-06-28T01:32:30.651Z,33.35
2023-06-28T01:33:30.622Z,33.33
2023-06-28T01:34:30.640Z,33.33
2023-06-28T01:35:30.681Z,33.30
2023-06-28T01:36:30.711Z,33.34
2023-06-28T01:37:30.765Z,33.33
2023-06-28T01:38:30.795Z,33.33
2023-06-28T01:39:30.845Z,33.34
2023-06-28T01:40:30.867Z,33.37
2023-06-28T01:41:30.898Z,33.32
2023-06-28T01:42:30.958Z,33.34
2023-06-28T01:43:30.982Z,33.37
2023-06-28T01:44:31.065Z,33.34
2023-06-28T01:45:31.049Z,33.33
2023-06-28T01:46:31.109Z,33.32
2023-06-28T01:47:31.170Z,33.34
2023-06-28T01:48:31.171Z,33.30
2023-06-28T01:49:31.198Z,33.33
2023-06-28T01:50:31.263Z,33.34
2023-06-28T01:51:31.291Z,33.34
2023-06-28T01:52:31.326Z,33.34
2023-06-28T01:53:31.362Z,33.31
2023-06-28T01:54:31.403Z,33.32
2023-06-28T01:55:31.458Z,33.35
2023-06-28T01:56:31.481Z,33.34
2023-06-28T01:57:31.511Z,33.35
2023-06-28T01:58:31.551Z,33.34
2023-06-28T01:59:31.567Z,33.36
2023-06-28T02:00:31.633Z,33.35
2023-06-28T02:01:31.662Z,33.33
2023-06-28T02:02:31.697Z,33.33
2023-06-28T02:03:31.856Z,33.33
2023-06-28T02:04:31.856Z,33.35
2023-06-28T02:05:31.813Z,33.38
2023-06-28T02:06:31.822Z,33.31
2023-06-28T02:07:31.961Z,33.30
2023-06-28T02:08:31.897Z,33.37
2023-06-28T02:09:31.931Z,33.31
2023-06-28T02:10:31.960Z,33.34
2023-06-28T02:11:31.982Z,33.34
2023-06-28T02:12:32.023Z,33.35
2023-06-28T02:13:32.039Z,33.34
2023-06-28T02:14:32.095Z,33.37
2023-06-28T02:15:32.117Z,33.33
2023-06-28T02:16:32.192Z,33.34
2023-06-28T02:17:32.199Z,33.37
2023-06-28T02:18:32.223Z,33.34
2023-06-28T02:19:32.266Z,33.38
2023-06-28T02:20:32.397Z,33.33
2023-06-28T02:21:32.339Z,33.37
2023-06-28T02:22:32.376Z,33.30
2023-06-28T02:23:32.425Z,33.34
2023-06-28T02:24:32.442Z,33.34
2023-06-28T02:25:32.486Z,33.34
2023-06-28T02:26:32.522Z,33.31
2023-06-28T02:27:32.564Z,33.37
2023-06-28T02:28:32.620Z,33.34
2023-06-28T02:29:32.647Z,33.34
2023-06-28T02:30:32.691Z,33.35
2023-06-28T02:31:32.800Z,33.31
2023-06-28T02:32:32.822Z,33.36
2023-06-28T02:33:32.813Z,33.34
2023-06-28T02:34:32.839Z,33.35
2023-06-28T02:35:32.883Z,33.35
2023-06-28T02:36:33.009Z,33.34
2023-06-28T02:37:32.955Z,33.33
2023-06-28T02:38:33.015Z,33.35
2023-06-28T02:39:33.042Z,33.36
2023-06-28T02:40:33.092Z,33.35
2023-06-28T02:41:33.105Z,33.37
2023-06-28T02:42:33.148Z,33.33
2023-06-28T02:43:33.134Z,33.35
2023-06-28T02:44:33.138Z,33.34
2023-06-28T02:45:33.134Z,33.37
2023-06-28T02:46:33.189Z,33.38
2023-06-28T02:47:33.220Z,33.38
2023-06-28T02:48:33.125Z,33.36
2023-06-28T02:49:33.138Z,33.36
2023-06-28T02:50:33.130Z,33.32
2023-06-28T02:51:33.125Z,33.34
2023-06-28T02:52:33.110Z,32.92
2023-06-28T02:53:33.108Z,32.79
2023-06-28T02:54:33.101Z,32.68
2023-06-28T02:55:33.097Z,32.58
2023-06-28T02:56:33.099Z,32.51
2023-06-28T02:57:33.141Z,32.50
2023-06-28T02:58:33.179Z,32.44
2023-06-28T02:59:33.221Z,32.41
2023-06-28T03:00:33.304Z,32.39
2023-06-28T03:01:33.421Z,32.24
2023-06-28T03:02:33.424Z,32.24
2023-06-28T03:03:33.456Z,32.23
2023-06-28T03:04:33.453Z,32.18
2023-06-28T03:05:33.516Z,32.11
2023-06-28T03:06:33.553Z,32.08
2023-06-28T03:07:33.741Z,32.03
2023-06-28T03:08:33.725Z,32.02
2023-06-28T03:09:33.727Z,31.96
2023-06-28T03:10:33.838Z,31.93
2023-06-28T03:11:33.841Z,31.88
2023-06-28T03:12:33.900Z,31.86
2023-06-28T03:13:33.962Z,31.79
2023-06-28T03:14:34.028Z,31.79
2023-06-28T03:15:34.109Z,31.76
2023-06-28T03:16:34.177Z,31.76
2023-06-28T03:17:34.289Z,31.76
2023-06-28T03:18:34.304Z,31.76
2023-06-28T03:19:34.371Z,31.70
2023-06-28T03:20:34.416Z,31.69
2023-06-28T03:21:34.471Z,31.66
2023-06-28T03:22:36.256Z,31.65
2023-06-28T03:23:34.537Z,31.61
2023-06-28T03:24:34.555Z,31.65
2023-06-28T03:25:34.534Z,31.67
2023-06-28T03:26:34.531Z,31.66
2023-06-28T03:27:34.526Z,31.66
2023-06-28T03:28:34.547Z,31.63
2023-06-28T03:29:34.540Z,31.66
2023-06-28T03:30:34.541Z,31.63
2023-06-28T03:31:34.547Z,31.64
2023-06-28T03:32:34.547Z,31.61
2023-06-28T03:33:34.545Z,31.66
2023-06-28T03:34:34.537Z,31.64
2023-06-28T03:35:34.541Z,31.65
2023-06-28T03:36:34.557Z,31.61
2023-06-28T03:37:34.554Z,31.65
2023-06-28T03:38:34.555Z,31.70
2023-06-28T03:39:34.534Z,31.66
2023-06-28T03:40:34.550Z,31.65
2023-06-28T03:41:34.549Z,31.72
2023-06-28T03:42:34.560Z,31.62
2023-06-28T03:43:34.560Z,31.67
2023-06-28T03:44:34.558Z,31.66
2023-06-28T03:45:34.573Z,31.64
2023-06-28T03:46:34.708Z,31.67
2023-06-28T03:47:34.590Z,31.67
2023-06-28T03:48:34.579Z,31.66
2023-06-28T03:49:34.604Z,31.72
2023-06-28T03:50:34.583Z,31.72
2023-06-28T03:51:34.582Z,31.71
2023-06-28T03:52:34.604Z,31.71
2023-06-28T03:53:34.606Z,31.71
2023-06-28T03:54:34.623Z,31.71
2023-06-28T03:55:34.617Z,31.72
2023-06-28T03:56:34.618Z,31.77
2023-06-28T03:57:34.632Z,31.78
2023-06-28T03:58:34.647Z,31.79
2023-06-28T03:59:34.640Z,31.77
2023-06-28T04:00:34.703Z,31.83
2023-06-28T04:01:34.636Z,31.83
2023-06-28T04:02:34.907Z,31.85
2023-06-28T04:03:34.832Z,31.85
2023-06-28T04:04:34.764Z,31.94
2023-06-28T04:05:34.665Z,31.94
2023-06-28T04:06:34.655Z,31.98
2023-06-28T04:07:34.888Z,31.99
2023-06-28T04:08:34.654Z,32.03
2023-06-28T04:09:34.663Z,32.06
2023-06-28T04:10:34.665Z,32.06
2023-06-28T04:11:34.656Z,32.06
2023-06-28T04:12:34.649Z,32.07
2023-06-28T04:13:34.659Z,32.13
2023-06-28T04:14:36.644Z,32.19
2023-06-28T04:15:34.655Z,32.18
2023-06-28T04:16:34.659Z,32.16
2023-06-28T04:17:34.742Z,32.19
2023-06-28T04:18:34.678Z,32.16
2023-06-28T04:19:34.702Z,32.26
2023-06-28T04:20:34.691Z,32.23
2023-06-28T04:21:34.695Z,32.22
2023-06-28T04:22:34.701Z,32.27
2023-06-28T04:23:34.730Z,32.31
2023-06-28T04:24:34.781Z,32.31
2023-06-28T04:25:34.820Z,32.39
2023-06-28T04:26:34.881Z,32.32
2023-06-28T04:27:34.899Z,32.39
2023-06-28T04:28:34.939Z,32.52
2023-06-28T04:29:34.986Z,32.56
2023-06-28T04:30:35.035Z,32.62
2023-06-28T04:31:35.138Z,32.83
2023-06-28T04:32:35.173Z,32.93
2023-06-28T04:33:35.174Z,32.81
2023-06-28T04:34:35.225Z,32.95
2023-06-28T04:35:35.288Z,33.14
2023-06-28T04:36:35.339Z,33.08
2023-06-28T04:37:35.389Z,33.17
2023-06-28T04:38:35.448Z,33.28
2023-06-28T04:39:35.520Z,33.24
2023-06-28T04:40:35.566Z,33.31
2023-06-28T04:41:35.616Z,33.22
2023-06-28T04:42:35.676Z,33.33
2023-06-28T04:43:35.730Z,33.37
2023-06-28T04:44:35.801Z,33.36
2023-06-28T04:45:35.913Z,33.40
2023-06-28T04:46:35.930Z,33.46
2023-06-28T04:47:36.036Z,33.50
2023-06-28T04:48:36.067Z,33.45
2023-06-28T04:49:36.156Z,33.49
2023-06-28T04:50:36.216Z,33.58
2023-06-28T04:51:36.282Z,33.56
2023-06-28T04:52:36.335Z,33.59
2023-06-28T04:53:36.348Z,33.57
2023-06-28T04:54:36.350Z,33.74
2023-06-28T04:55:36.778Z,33.70
2023-06-28T04:56:36.369Z,33.78
2023-06-28T04:57:36.371Z,33.77
2023-06-28T04:58:36.389Z,33.75
2023-06-28T04:59:36.383Z,33.81
2023-06-28T05:00:36.409Z,33.73
2023-06-28T05:01:36.448Z,33.66
2023-06-28T05:02:36.508Z,33.59
2023-06-28T05:03:36.619Z,33.78
2023-06-28T05:04:36.612Z,33.93
2023-06-28T05:05:36.735Z,33.77
2023-06-28T05:06:36.768Z,33.79
2023-06-28T05:07:36.908Z,33.95
2023-06-28T05:08:36.902Z,33.78
2023-06-28T05:09:36.905Z,33.89
2023-06-28T05:10:37.000Z,33.97
2023-06-28T05:11:36.972Z,34.01
2023-06-28T05:12:37.009Z,33.99
2023-06-28T05:13:37.042Z,34.06
2023-06-28T05:14:37.072Z,34.19
2023-06-28T05:15:37.099Z,34.16
2023-06-28T05:16:37.638Z,34.24
2023-06-28T05:17:37.238Z,34.31
2023-06-28T05:18:37.175Z,34.33
2023-06-28T05:19:37.200Z,34.33
2023-06-28T05:20:37.219Z,34.32
2023-06-28T05:21:37.222Z,34.40
2023-06-28T05:22:37.246Z,34.34
2023-06-28T05:23:37.285Z,34.47
2023-06-28T05:24:37.277Z,34.56
2023-06-28T05:25:37.296Z,34.63
2023-06-28T05:26:37.323Z,34.49
2023-06-28T05:27:37.366Z,34.49
2023-06-28T05:28:37.375Z,34.60
2023-06-28T05:29:37.379Z,34.40
2023-06-28T05:30:37.416Z,34.56
2023-06-28T05:31:37.519Z,34.65
2023-06-28T05:32:37.493Z,34.93
2023-06-28T05:33:37.470Z,34.94
2023-06-28T05:34:37.479Z,35.21
2023-06-28T05:35:37.528Z,35.12
2023-06-28T05:36:37.509Z,35.08
2023-06-28T05:37:37.529Z,35.51
2023-06-28T05:38:37.619Z,35.44
2023-06-28T05:39:37.524Z,36.06
2023-06-28T05:40:37.567Z,35.71
2023-06-28T05:41:37.564Z,35.70
2023-06-28T05:42:37.585Z,35.62
2023-06-28T05:43:37.583Z,35.73
2023-06-28T05:44:37.597Z,35.73
2023-06-28T05:45:37.623Z,35.70
2023-06-28T05:46:37.646Z,35.41
2023-06-28T05:47:37.714Z,35.17
2023-06-28T05:48:37.703Z,35.26
2023-06-28T05:49:37.676Z,35.24
2023-06-28T05:50:40.470Z,35.32
2023-06-28T05:51:37.743Z,35.75
2023-06-28T05:52:37.696Z,35.78
2023-06-28T05:53:37.719Z,35.70
2023-06-28T05:54:37.751Z,35.73
2023-06-28T05:55:37.756Z,35.64
2023-06-28T05:56:37.774Z,35.69
2023-06-28T05:57:37.786Z,35.85
2023-06-28T05:58:37.801Z,35.68
2023-06-28T05:59:37.825Z,35.77
2023-06-28T06:00:37.833Z,35.78
2023-06-28T06:01:37.950Z,35.71
2023-06-28T06:02:37.895Z,35.76
2023-06-28T06:03:37.987Z,35.79
2023-06-28T06:04:37.957Z,35.94
2023-06-28T06:05:38.042Z,35.61
2023-06-28T06:06:38.135Z,35.33
2023-06-28T06:07:38.221Z,35.30
2023-06-28T06:08:38.325Z,35.29
2023-06-28T06:09:38.369Z,35.08
2023-06-28T06:10:38.428Z,35.14
2023-06-28T06:11:38.566Z,35.27
2023-06-28T06:12:38.734Z,35.47
2023-06-28T06:13:38.655Z,35.34
2023-06-28T06:14:38.670Z,35.53
2023-06-28T06:15:38.718Z,35.70
2023-06-28T06:16:38.751Z,35.41
2023-06-28T06:17:38.872Z,35.35
2023-06-28T06:18:38.789Z,35.32
2023-06-28T06:19:38.807Z,35.24
2023-06-28T06:20:38.831Z,35.09
2023-06-28T06:21:38.853Z,34.95
2023-06-28T06:22:38.861Z,34.86
2023-06-28T06:23:38.930Z,34.66
2023-06-28T06:24:38.901Z,34.66
2023-06-28T06:25:38.926Z,34.78
2023-06-28T06:26:38.946Z,34.75
2023-06-28T06:27:38.983Z,34.90
2023-06-28T06:28:39.013Z,34.85
2023-06-28T06:29:39.011Z,34.81
2023-06-28T06:30:40.007Z,35.10
2023-06-28T06:31:39.118Z,35.18
2023-06-28T06:32:39.095Z,35.13
2023-06-28T06:33:39.155Z,35.09
2023-06-28T06:34:39.089Z,35.15
2023-06-28T06:35:39.146Z,35.22
2023-06-28T06:36:39.124Z,35.33
2023-06-28T06:37:39.263Z,35.48
2023-06-28T06:38:39.161Z,35.44
2023-06-28T06:39:39.188Z,35.38
2023-06-28T06:40:39.270Z,35.43
2023-06-28T06:41:39.239Z,35.48
2023-06-28T06:42:39.246Z,35.39
2023-06-28T06:43:39.267Z,35.34
2023-06-28T06:44:39.351Z,35.24
2023-06-28T06:45:39.315Z,35.30
2023-06-28T06:46:39.343Z,35.46
2023-06-28T06:47:39.403Z,35.48
2023-06-28T06:48:39.405Z,35.39
2023-06-28T06:49:39.393Z,35.30
2023-06-28T06:50:39.485Z,35.29
2023-06-28T06:51:39.418Z,35.37
2023-06-28T06:52:39.502Z,35.63
2023-06-28T06:53:39.467Z,35.95
2023-06-28T06:54:39.465Z,35.68
2023-06-28T06:55:39.507Z,36.09
2023-06-28T06:56:39.511Z,35.66
2023-06-28T06:57:39.517Z,35.58
2023-06-28T06:58:39.546Z,35.50
2023-06-28T06:59:39.563Z,35.62
2023-06-28T07:00:39.809Z,35.35
2023-06-28T07:01:39.634Z,35.06
2023-06-28T07:02:39.671Z,35.07
2023-06-28T07:03:39.664Z,35.10
2023-06-28T07:04:39.671Z,35.49
2023-06-28T07:05:39.754Z,35.40
2023-06-28T07:06:39.742Z,35.24
2023-06-28T07:07:39.808Z,35.81
2023-06-28T07:08:39.838Z,35.48
2023-06-28T07:09:39.785Z,35.51
2023-06-28T07:10:39.789Z,35.62
2023-06-28T07:11:39.908Z,35.61
2023-06-28T07:12:39.855Z,35.54
2023-06-28T07:13:39.907Z,35.54
2023-06-28T07:14:39.900Z,36.13
2023-06-28T07:15:40.150Z,35.31
2023-06-28T07:16:39.945Z,35.90
2023-06-28T07:17:40.132Z,34.90
2023-06-28T07:18:40.106Z,35.01
2023-06-28T07:19:40.060Z,34.68
2023-06-28T07:20:40.031Z,34.59
2023-06-28T07:21:40.045Z,34.57
2023-06-28T07:22:40.116Z,34.62
2023-06-28T07:23:40.059Z,34.91
2023-06-28T07:24:40.108Z,34.54
2023-06-28T07:25:40.340Z,34.76
2023-06-28T07:26:40.153Z,34.50
2023-06-28T07:27:40.151Z,34.53
2023-06-28T07:28:40.269Z,34.52
2023-06-28T07:29:40.210Z,34.69
2023-06-28T07:30:40.349Z,34.76
2023-06-28T07:31:40.262Z,35.30
2023-06-28T07:32:40.263Z,35.43
2023-06-28T07:33:40.275Z,35.67
2023-06-28T07:34:40.298Z,35.33
2023-06-28T07:35:40.506Z,35.58
2023-06-28T07:36:40.410Z,35.18
2023-06-28T07:37:40.342Z,35.36
2023-06-28T07:38:40.366Z,35.55
2023-06-28T07:39:40.411Z,35.71
2023-06-28T07:40:40.424Z,35.58
2023-06-28T07:41:40.447Z,35.94
2023-06-28T07:42:40.438Z,35.90
2023-06-28T07:43:40.480Z,35.42
2023-06-28T07:44:40.488Z,35.35
2023-06-28T07:45:40.756Z,35.59
2023-06-28T07:46:40.531Z,35.17
2023-06-28T07:47:42.485Z,34.74
2023-06-28T07:48:40.602Z,35.16
2023-06-28T07:49:40.574Z,35.05
2023-06-28T07:50:40.618Z,34.96
2023-06-28T07:51:40.613Z,35.06
2023-06-28T07:52:40.637Z,35.06
2023-06-28T07:53:40.646Z,34.71
2023-06-28T07:54:40.666Z,34.96
2023-06-28T07:55:41.034Z,35.22
2023-06-28T07:56:40.734Z,34.96
2023-06-28T07:57:40.758Z,34.93
2023-06-28T07:58:40.799Z,34.95
2023-06-28T07:59:40.870Z,35.06
2023-06-28T08:00:40.879Z,35.30
2023-06-28T08:01:41.043Z,35.46
2023-06-28T08:02:41.019Z,35.42
2023-06-28T08:03:41.005Z,35.41
2023-06-28T08:04:40.961Z,35.53
2023-06-28T08:05:41.197Z,35.29
2023-06-28T08:06:41.050Z,35.42
2023-06-28T08:07:41.130Z,35.57
2023-06-28T08:08:41.075Z,35.51
2023-06-28T08:09:41.097Z,35.61
2023-06-28T08:10:41.107Z,35.67
2023-06-28T08:11:41.138Z,35.66
2023-06-28T08:12:41.109Z,35.68
2023-06-28T08:13:41.162Z,35.69
2023-06-28T08:14:41.246Z,35.84
2023-06-28T08:15:41.495Z,35.77
2023-06-28T08:16:41.239Z,35.80
2023-06-28T08:17:41.251Z,35.55
2023-06-28T08:18:41.250Z,35.56
2023-06-28T08:19:41.276Z,35.62
2023-06-28T08:20:43.357Z,36.02
2023-06-28T08:21:41.320Z,36.03
2023-06-28T08:22:41.326Z,36.05
2023-06-28T08:23:41.356Z,36.01
2023-06-28T08:24:41.381Z,36.01
2023-06-28T08:25:41.633Z,35.93
2023-06-28T08:26:43.364Z,35.98
2023-06-28T08:27:41.464Z,35.95
2023-06-28T08:28:58.516Z,35.92
2023-06-28T08:29:42.549Z,35.85
2023-06-28T08:30:41.511Z,36.12
2023-06-28T08:31:41.541Z,36.19
2023-06-28T08:32:41.625Z,36.12
2023-06-28T08:33:43.145Z,35.95
2023-06-28T08:34:41.579Z,35.84
2023-06-28T08:35:41.868Z,35.65
2023-06-28T08:36:41.639Z,35.59
2023-06-28T08:37:41.642Z,35.58
2023-06-28T08:38:41.674Z,35.75
2023-06-28T08:39:41.723Z,35.89
2023-06-28T08:40:41.731Z,35.86
2023-06-28T08:41:41.752Z,35.74
2023-06-28T08:42:41.775Z,35.61
2023-06-28T08:43:41.922Z,35.42
2023-06-28T08:44:41.793Z,35.48
2023-06-28T08:45:42.040Z,35.46
2023-06-28T08:46:41.896Z,35.33
2023-06-28T08:47:41.911Z,35.42
2023-06-28T08:48:41.945Z,35.42
2023-06-28T08:49:42.033Z,35.20
2023-06-28T08:50:42.094Z,34.74
2023-06-28T08:51:42.212Z,35.11
2023-06-28T08:52:42.182Z,35.34
2023-06-28T08:53:42.200Z,35.36
2023-06-28T08:54:42.217Z,35.64
2023-06-28T08:55:42.419Z,35.66
2023-06-28T08:56:48.474Z,35.94
2023-06-28T08:57:43.278Z,36.01
2023-06-28T08:58:42.434Z,35.98
2023-06-28T08:59:42.336Z,35.99
2023-06-28T09:00:42.622Z,36.02
2023-06-28T09:01:42.382Z,36.04
2023-06-28T09:02:42.466Z,35.99
2023-06-28T09:03:42.684Z,36.07
2023-06-28T09:04:42.401Z,36.06
2023-06-28T09:05:42.805Z,36.27
2023-06-28T09:06:42.439Z,36.25
2023-06-28T09:07:42.519Z,36.61
2023-06-28T09:08:42.443Z,36.56
2023-06-28T09:09:42.491Z,36.70
2023-06-28T09:10:42.462Z,36.59
2023-06-28T09:11:42.490Z,36.50
2023-06-28T09:12:42.483Z,36.60
2023-06-28T09:13:42.497Z,36.61
2023-06-28T09:14:42.549Z,36.60
2023-06-28T09:15:42.850Z,36.50
2023-06-28T09:16:42.592Z,36.94
2023-06-28T09:17:42.576Z,37.03
2023-06-28T09:18:42.568Z,37.07
2023-06-28T09:19:42.598Z,36.96
2023-06-28T09:20:42.577Z,36.87
2023-06-28T09:21:42.644Z,36.61
2023-06-28T09:22:44.437Z,36.78
2023-06-28T09:23:42.633Z,36.79
2023-06-28T09:24:42.686Z,36.92
2023-06-28T09:25:42.926Z,36.71
2023-06-28T09:26:42.752Z,36.36
2023-06-28T09:27:42.686Z,36.42
2023-06-28T09:28:42.781Z,36.28
2023-06-28T09:29:42.740Z,36.50
2023-06-28T09:30:42.704Z,36.67
2023-06-28T09:31:42.795Z,36.59
2023-06-28T09:32:42.717Z,36.44
2023-06-28T09:33:42.714Z,36.56
2023-06-28T09:34:42.741Z,36.48
2023-06-28T09:35:42.989Z,36.52
2023-06-28T09:36:42.740Z,36.37
2023-06-28T09:37:42.710Z,36.63
2023-06-28T09:38:42.748Z,36.63
2023-06-28T09:39:42.735Z,36.35
2023-06-28T09:40:42.764Z,36.22
2023-06-28T09:41:42.750Z,36.20
2023-06-28T09:42:42.754Z,35.63
2023-06-28T09:43:42.810Z,35.42
2023-06-28T09:44:42.768Z,35.26
2023-06-28T09:45:43.004Z,35.19
2023-06-28T09:46:42.886Z,35.04
2023-06-28T09:47:42.836Z,34.96
2023-06-28T09:48:42.803Z,34.90
2023-06-28T09:49:42.800Z,34.84
2023-06-28T09:50:43.077Z,34.56
2023-06-28T09:51:42.844Z,34.41
2023-06-28T09:52:42.843Z,34.22
2023-06-28T09:53:42.870Z,34.09
2023-06-28T09:54:43.659Z,33.56
2023-06-28T09:55:43.176Z,33.28
2023-06-28T09:56:42.894Z,33.23
2023-06-28T09:57:42.873Z,33.22
2023-06-28T09:58:42.883Z,33.11
2023-06-28T09:59:42.886Z,33.12
2023-06-28T10:00:42.939Z,33.04
2023-06-28T10:01:42.927Z,33.02
2023-06-28T10:02:43.087Z,32.98
2023-06-28T10:03:43.012Z,32.91
2023-06-28T10:04:43.135Z,32.94
2023-06-28T10:05:43.211Z,32.83
2023-06-28T10:06:42.978Z,32.77
2023-06-28T10:07:42.962Z,32.67
2023-06-28T10:08:42.977Z,32.39
2023-06-28T10:09:42.972Z,32.19
2023-06-28T10:10:42.982Z,32.31
2023-06-28T10:11:43.008Z,32.69
2023-06-28T10:12:43.034Z,32.81
2023-06-28T10:13:43.057Z,32.73
2023-06-28T10:14:43.060Z,32.80
2023-06-28T10:15:43.186Z,32.69
2023-06-28T10:16:43.083Z,32.83
2023-06-28T10:17:43.150Z,32.79
2023-06-28T10:18:43.110Z,32.88
2023-06-28T10:19:43.138Z,32.84
2023-06-28T10:20:43.161Z,32.71
2023-06-28T10:21:43.163Z,32.71
2023-06-28T10:22:43.182Z,32.67
2023-06-28T10:23:43.220Z,32.68
2023-06-28T10:24:43.210Z,32.57
2023-06-28T10:25:43.364Z,32.54
2023-06-28T10:26:43.239Z,32.56
2023-06-28T10:27:43.245Z,32.49
2023-06-28T10:28:43.349Z,32.45
2023-06-28T10:29:43.328Z,32.38
2023-06-28T10:30:43.299Z,32.31
2023-06-28T10:31:43.385Z,32.33
2023-06-28T10:32:43.382Z,32.32
2023-06-28T10:33:43.331Z,32.29
2023-06-28T10:34:43.343Z,32.23
2023-06-28T10:35:43.622Z,32.26
2023-06-28T10:36:43.470Z,32.19
2023-06-28T10:37:43.397Z,32.14
2023-06-28T10:38:43.410Z,32.16
2023-06-28T10:39:43.429Z,32.14
2023-06-28T10:40:43.463Z,32.07
2023-06-28T10:41:43.462Z,31.95
2023-06-28T10:42:43.481Z,31.98
2023-06-28T10:43:43.470Z,31.95
2023-06-28T10:44:43.491Z,31.94
2023-06-28T10:45:43.707Z,31.92
2023-06-28T10:46:43.602Z,32.00
2023-06-28T10:47:43.588Z,32.03
2023-06-28T10:48:43.569Z,32.00
2023-06-28T10:49:43.695Z,32.02
2023-06-28T10:50:43.623Z,31.77
2023-06-28T10:51:43.621Z,31.75
2023-06-28T10:52:43.630Z,31.88
2023-06-28T10:53:43.691Z,31.88
2023-06-28T10:54:43.662Z,31.96
2023-06-28T10:55:43.788Z,31.98
2023-06-28T10:56:43.723Z,31.95
2023-06-28T10:57:43.712Z,31.94
2023-06-28T10:58:43.735Z,31.93
2023-06-28T10:59:43.769Z,31.96
2023-06-28T11:00:43.791Z,31.91
2023-06-28T11:01:43.772Z,31.92
2023-06-28T11:02:43.908Z,31.83
2023-06-28T11:03:43.817Z,31.85
2023-06-28T11:04:43.891Z,31.78
2023-06-28T11:05:44.200Z,31.78
2023-06-28T11:06:43.998Z,31.77
2023-06-28T11:07:44.074Z,31.78
2023-06-28T11:08:44.171Z,31.78
2023-06-28T11:09:44.180Z,31.74
2023-06-28T11:10:44.251Z,31.70
2023-06-28T11:11:44.302Z,31.67
2023-06-28T11:12:44.370Z,31.72
2023-06-28T11:13:44.425Z,31.68
2023-06-28T11:14:44.492Z,31.68
2023-06-28T11:15:44.572Z,31.58
2023-06-28T11:16:44.610Z,31.57
2023-06-28T11:17:44.670Z,31.45
2023-06-28T11:18:44.715Z,31.42
2023-06-28T11:19:44.780Z,31.37
2023-06-28T11:20:44.826Z,31.30
2023-06-28T11:21:44.895Z,31.27
2023-06-28T11:22:44.916Z,31.23
2023-06-28T11:23:44.984Z,31.16
2023-06-28T11:24:45.025Z,31.20
2023-06-28T11:25:45.104Z,31.26
2023-06-28T11:26:45.169Z,31.18
2023-06-28T11:27:45.218Z,31.18
2023-06-28T11:28:45.269Z,31.29
2023-06-28T11:29:45.304Z,31.22
2023-06-28T11:30:45.362Z,31.25
2023-06-28T11:31:45.345Z,31.24
2023-06-28T11:32:45.367Z,31.12
2023-06-28T11:33:45.359Z,31.14
2023-06-28T11:34:45.371Z,31.12
2023-06-28T11:35:45.381Z,31.10
2023-06-28T11:36:45.409Z,31.12
2023-06-28T11:37:45.405Z,31.11
2023-06-28T11:38:45.431Z,31.22
2023-06-28T11:39:45.436Z,31.43
2023-06-28T11:40:45.466Z,31.32
2023-06-28T11:41:45.463Z,31.39
2023-06-28T11:42:45.478Z,31.50
2023-06-28T11:43:45.497Z,31.52
2023-06-28T11:44:45.507Z,31.60
2023-06-28T11:45:45.562Z,31.70
2023-06-28T11:46:45.593Z,31.78
2023-06-28T11:47:45.708Z,31.88
2023-06-28T11:48:45.670Z,31.81
2023-06-28T11:49:45.705Z,31.81
2023-06-28T11:50:45.746Z,31.81
2023-06-28T11:51:45.790Z,31.87
2023-06-28T11:52:45.836Z,32.62
2023-06-28T11:53:45.862Z,33.71
2023-06-28T11:54:46.002Z,34.76
2023-06-28T11:55:45.913Z,35.88
2023-06-28T11:56:46.038Z,36.00
2023-06-28T11:57:45.976Z,36.12
2023-06-28T11:58:45.987Z,35.48
2023-06-28T11:59:46.030Z,34.90
2023-06-28T12:00:46.022Z,34.45
2023-06-28T12:01:46.079Z,34.34
2023-06-28T12:02:46.101Z,34.39
2023-06-28T12:03:46.199Z,34.46
2023-06-28T12:04:46.252Z,34.43
2023-06-28T12:05:46.146Z,34.43
2023-06-28T12:06:46.164Z,34.38
2023-06-28T12:07:46.159Z,34.36
2023-06-28T12:08:46.242Z,34.39
2023-06-28T12:09:46.211Z,34.34
2023-06-28T12:10:46.249Z,34.25
2023-06-28T12:11:46.260Z,34.29
2023-06-28T12:12:46.265Z,34.26
2023-06-28T12:13:46.306Z,34.17
2023-06-28T12:14:46.310Z,34.19
2023-06-28T12:15:46.333Z,34.16
2023-06-28T12:16:46.364Z,34.16
2023-06-28T12:17:46.419Z,34.16
2023-06-28T12:18:46.421Z,34.11
2023-06-28T12:19:46.441Z,34.09
2023-06-28T12:20:46.471Z,34.12
2023-06-28T12:21:46.464Z,34.05
2023-06-28T12:22:46.496Z,34.05
2023-06-28T12:23:46.507Z,34.00
2023-06-28T12:24:46.544Z,33.99
2023-06-28T12:25:46.551Z,33.98
2023-06-28T12:26:46.576Z,33.94
2023-06-28T12:27:46.577Z,33.94
2023-06-28T12:28:46.603Z,33.92
2023-06-28T12:29:46.619Z,33.92
2023-06-28T12:30:46.666Z,33.95
2023-06-28T12:31:46.689Z,34.03
2023-06-28T12:32:46.709Z,34.14
2023-06-28T12:33:46.666Z,34.13
2023-06-28T12:34:46.686Z,34.16
2023-06-28T12:35:46.697Z,34.14
2023-06-28T12:36:46.721Z,34.09
2023-06-28T12:37:46.728Z,34.08
2023-06-28T12:38:46.735Z,34.07
2023-06-28T12:39:46.774Z,34.03
2023-06-28T12:40:46.753Z,34.03
2023-06-28T12:41:46.789Z,34.01
2023-06-28T12:42:46.810Z,33.98
2023-06-28T12:43:46.800Z,33.99
2023-06-28T12:44:46.817Z,33.95
2023-06-28T12:45:46.824Z,33.99
2023-06-28T12:46:46.832Z,33.98
2023-06-28T12:47:46.870Z,33.98
2023-06-28T12:48:46.853Z,33.92
2023-06-28T12:49:46.882Z,33.93
2023-06-28T12:50:46.951Z,33.96
2023-06-28T12:51:46.931Z,33.92
2023-06-28T12:52:46.927Z,33.92